sensor_id;sensor_type;location;lat;lon;timestamp;temperature;humidity
10249;DHT22;5169;50.560;9.714;2023-04-01T00:00:53;8.60;99.90
10249;DHT22;5169;50.560;9.714;2023-04-01T00:03:22;8.60;99.90
10249;DHT22;5169;50.560;9.714;2023-04-01T00:05:48;8.60;99.90
10249;DHT22;5169;50.560;9.714;2023-04-01T00:08:14;8.60;99.90
10249;DHT22;5169;50.560;9.714;2023-04-01T00:10:45;8.60;99.90
10249;DHT22;5169;50.560;9.714;2023-04-01T00:13:13;8.60;99.90
10249;DHT22;5169;50.560;9.714;2023-04-01T00:15:41;8.50;99.90
10249;DHT22;5169;50.560;9.714;2023-04-01T00:18:07;8.60;99.90
10249;DHT22;5169;50.560;9.714;2023-04-01T00:20:35;8.50;99.90
10249;DHT22;5169;50.560;9.714;2023-04-01T00:23:00;8.50;99.90
10249;DHT22;5169;50.560;9.714;2023-04-01T00:25:26;8.50;99.90
10249;DHT22;5169;50.560;9.714;2023-04-01T00:27:52;8.50;99.90
10249;DHT22;5169;50.560;9.714;2023-04-01T00:30:17;8.50;99.90
10249;DHT22;5169;50.560;9.714;2023-04-01T00:32:46;8.50;99.90
10249;DHT22;5169;50.560;9.714;2023-04-01T00:35:14;8.50;99.90
10249;DHT22;5169;50.560;9.714;2023-04-01T00:37:42;8.50;99.90
10249;DHT22;5169;50.560;9.714;2023-04-01T00:40:24;8.50;99.90
10249;DHT22;5169;50.560;9.714;2023-04-01T00:42:49;8.50;99.90
10249;DHT22;5169;50.560;9.714;2023-04-01T00:45:37;8.40;99.90
10249;DHT22;5169;50.560;9.714;2023-04-01T00:48:36;8.40;99.90
10249;DHT22;5169;50.560;9.714;2023-04-01T00:51:09;8.30;99.90
10249;DHT22;5169;50.560;9.714;2023-04-01T00:53:39;8.30;99.90
10249;DHT22;5169;50.560;9.714;2023-04-01T00:56:11;8.30;99.90
10249;DHT22;5169;50.560;9.714;2023-04-01T00:58:41;8.20;99.90
10249;DHT22;5169;50.560;9.714;2023-04-01T01:01:10;8.30;99.90
10249;DHT22;5169;50.560;9.714;2023-04-01T01:03:36;8.30;99.90
10249;DHT22;5169;50.560;9.714;2023-04-01T01:06:18;8.30;99.90
10249;DHT22;5169;50.560;9.714;2023-04-01T01:11:45;8.30;99.90
10249;DHT22;5169;50.560;9.714;2023-04-01T01:14:36;8.40;99.90
10249;DHT22;5169;50.560;9.714;2023-04-01T01:17:47;8.40;99.90
10249;DHT22;5169;50.560;9.714;2023-04-01T01:20:53;8.30;99.90
10249;DHT22;5169;50.560;9.714;2023-04-01T01:23:46;8.30;99.90
10249;DHT22;5169;50.560;9.714;2023-04-01T01:37:31;8.40;99.90
10249;DHT22;5169;50.560;9.714;2023-04-01T01:40:04;8.40;99.90
10249;DHT22;5169;50.560;9.714;2023-04-01T01:42:31;8.40;99.90
10249;DHT22;5169;50.560;9.714;2023-04-01T01:45:00;8.50;99.90
10249;DHT22;5169;50.560;9.714;2023-04-01T01:47:28;8.40;99.90
10249;DHT22;5169;50.560;9.714;2023-04-01T01:49:57;8.50;99.90
10249;DHT22;5169;50.560;9.714;2023-04-01T01:52:24;8.40;99.90
10249;DHT22;5169;50.560;9.714;2023-04-01T01:54:53;8.30;99.90
10249;DHT22;5169;50.560;9.714;2023-04-01T01:57:32;8.30;99.90
10249;DHT22;5169;50.560;9.714;2023-04-01T02:00:02;8.30;99.90
10249;DHT22;5169;50.560;9.714;2023-04-01T02:02:34;8.30;99.90
10249;DHT22;5169;50.560;9.714;2023-04-01T02:05:00;8.30;99.90
10249;DHT22;5169;50.560;9.714;2023-04-01T02:07:31;8.30;99.90
10249;DHT22;5169;50.560;9.714;2023-04-01T02:10:03;8.40;99.90
10249;DHT22;5169;50.560;9.714;2023-04-01T02:12:30;8.40;99.90
10249;DHT22;5169;50.560;9.714;2023-04-01T02:15:24;8.30;99.90
10249;DHT22;5169;50.560;9.714;2023-04-01T02:17:50;8.30;99.90
10249;DHT22;5169;50.560;9.714;2023-04-01T02:20:22;8.30;99.90
10249;DHT22;5169;50.560;9.714;2023-04-01T02:22:54;8.30;99.90
10249;DHT22;5169;50.560;9.714;2023-04-01T02:25:33;8.30;99.90
10249;DHT22;5169;50.560;9.714;2023-04-01T02:28:01;8.30;99.90
10249;DHT22;5169;50.560;9.714;2023-04-01T02:30:33;8.30;99.90
10249;DHT22;5169;50.560;9.714;2023-04-01T02:33:03;8.30;99.90
10249;DHT22;5169;50.560;9.714;2023-04-01T02:35:29;8.30;99.90
10249;DHT22;5169;50.560;9.714;2023-04-01T02:37:58;8.30;99.90
10249;DHT22;5169;50.560;9.714;2023-04-01T02:40:24;8.30;99.90
10249;DHT22;5169;50.560;9.714;2023-04-01T02:42:49;8.20;99.90
10249;DHT22;5169;50.560;9.714;2023-04-01T02:45:16;8.20;99.90
10249;DHT22;5169;50.560;9.714;2023-04-01T02:47:41;8.30;99.90
10249;DHT22;5169;50.560;9.714;2023-04-01T02:50:08;8.30;99.90
10249;DHT22;5169;50.560;9.714;2023-04-01T02:52:34;8.20;99.90
10249;DHT22;5169;50.560;9.714;2023-04-01T02:55:03;8.20;99.90
10249;DHT22;5169;50.560;9.714;2023-04-01T02:57:29;8.20;99.90
10249;DHT22;5169;50.560;9.714;2023-04-01T03:00:00;8.20;99.90
10249;DHT22;5169;50.560;9.714;2023-04-01T03:02:25;8.20;99.90
10249;DHT22;5169;50.560;9.714;2023-04-01T03:04:51;8.20;99.90
10249;DHT22;5169;50.560;9.714;2023-04-01T03:07:17;8.20;99.90
10249;DHT22;5169;50.560;9.714;2023-04-01T03:09:42;8.20;99.90
10249;DHT22;5169;50.560;9.714;2023-04-01T03:12:08;8.20;99.90
10249;DHT22;5169;50.560;9.714;2023-04-01T03:14:36;8.20;99.90
10249;DHT22;5169;50.560;9.714;2023-04-01T03:17:04;8.20;99.90
10249;DHT22;5169;50.560;9.714;2023-04-01T03:19:33;8.20;99.90
10249;DHT22;5169;50.560;9.714;2023-04-01T03:21:58;8.20;99.90
10249;DHT22;5169;50.560;9.714;2023-04-01T03:24:24;8.20;99.90
10249;DHT22;5169;50.560;9.714;2023-04-01T03:26:52;8.30;99.90
10249;DHT22;5169;50.560;9.714;2023-04-01T03:29:17;8.20;99.90
10249;DHT22;5169;50.560;9.714;2023-04-01T03:31:43;8.20;99.90
10249;DHT22;5169;50.560;9.714;2023-04-01T03:34:11;8.30;99.90
10249;DHT22;5169;50.560;9.714;2023-04-01T03:36:37;8.20;99.90
10249;DHT22;5169;50.560;9.714;2023-04-01T03:39:03;8.20;99.90
10249;DHT22;5169;50.560;9.714;2023-04-01T03:41:31;8.20;99.90
10249;DHT22;5169;50.560;9.714;2023-04-01T03:43:59;8.20;99.90
10249;DHT22;5169;50.560;9.714;2023-04-01T03:46:25;8.20;99.90
10249;DHT22;5169;50.560;9.714;2023-04-01T03:48:50;8.20;99.90
10249;DHT22;5169;50.560;9.714;2023-04-01T03:51:16;8.10;99.90
10249;DHT22;5169;50.560;9.714;2023-04-01T03:53:43;8.10;99.90
10249;DHT22;5169;50.560;9.714;2023-04-01T03:56:12;8.10;99.90
10249;DHT22;5169;50.560;9.714;2023-04-01T03:58:37;8.20;99.90
10249;DHT22;5169;50.560;9.714;2023-04-01T04:01:14;8.20;99.90
10249;DHT22;5169;50.560;9.714;2023-04-01T04:03:39;8.20;99.90
10249;DHT22;5169;50.560;9.714;2023-04-01T04:06:05;8.20;99.90
10249;DHT22;5169;50.560;9.714;2023-04-01T04:08:35;8.20;99.90
10249;DHT22;5169;50.560;9.714;2023-04-01T04:11:01;8.20;99.90
10249;DHT22;5169;50.560;9.714;2023-04-01T04:13:27;8.20;99.90
10249;DHT22;5169;50.560;9.714;2023-04-01T04:15:52;8.20;99.90
10249;DHT22;5169;50.560;9.714;2023-04-01T04:18:20;8.20;99.90
10249;DHT22;5169;50.560;9.714;2023-04-01T04:20:46;8.10;99.90
10249;DHT22;5169;50.560;9.714;2023-04-01T04:23:16;8.20;99.90
10249;DHT22;5169;50.560;9.714;2023-04-01T04:25:41;8.20;99.90
10249;DHT22;5169;50.560;9.714;2023-04-01T04:28:07;8.20;99.90
10249;DHT22;5169;50.560;9.714;2023-04-01T04:30:32;8.20;99.90
10249;DHT22;5169;50.560;9.714;2023-04-01T04:32:58;8.20;99.90
10249;DHT22;5169;50.560;9.714;2023-04-01T04:35:23;8.20;99.90
10249;DHT22;5169;50.560;9.714;2023-04-01T04:37:49;8.20;99.90
10249;DHT22;5169;50.560;9.714;2023-04-01T04:40:17;8.20;99.90
10249;DHT22;5169;50.560;9.714;2023-04-01T04:42:45;8.20;99.90
10249;DHT22;5169;50.560;9.714;2023-04-01T04:45:13;8.20;99.90
10249;DHT22;5169;50.560;9.714;2023-04-01T04:47:39;8.20;99.90
10249;DHT22;5169;50.560;9.714;2023-04-01T04:50:05;8.20;99.90
10249;DHT22;5169;50.560;9.714;2023-04-01T04:52:31;8.20;99.90
10249;DHT22;5169;50.560;9.714;2023-04-01T04:54:56;8.20;99.90
10249;DHT22;5169;50.560;9.714;2023-04-01T04:57:22;8.30;99.90
10249;DHT22;5169;50.560;9.714;2023-04-01T04:59:47;8.20;99.90
10249;DHT22;5169;50.560;9.714;2023-04-01T05:02:15;8.20;99.90
10249;DHT22;5169;50.560;9.714;2023-04-01T05:04:41;8.20;99.90
10249;DHT22;5169;50.560;9.714;2023-04-01T05:07:06;8.10;99.90
10249;DHT22;5169;50.560;9.714;2023-04-01T05:09:32;8.10;99.90
10249;DHT22;5169;50.560;9.714;2023-04-01T05:11:59;8.10;99.90
10249;DHT22;5169;50.560;9.714;2023-04-01T05:14:26;8.20;99.90
10249;DHT22;5169;50.560;9.714;2023-04-01T05:16:52;8.20;99.90
10249;DHT22;5169;50.560;9.714;2023-04-01T05:19:19;8.20;99.90
10249;DHT22;5169;50.560;9.714;2023-04-01T05:21:47;8.30;99.90
10249;DHT22;5169;50.560;9.714;2023-04-01T05:24:13;8.30;99.90
10249;DHT22;5169;50.560;9.714;2023-04-01T05:26:38;8.20;99.90
10249;DHT22;5169;50.560;9.714;2023-04-01T05:29:04;8.20;99.90
10249;DHT22;5169;50.560;9.714;2023-04-01T05:31:32;8.20;99.90
10249;DHT22;5169;50.560;9.714;2023-04-01T05:34:00;8.20;99.90
10249;DHT22;5169;50.560;9.714;2023-04-01T05:36:26;8.20;99.90
10249;DHT22;5169;50.560;9.714;2023-04-01T05:38:55;8.20;99.90
10249;DHT22;5169;50.560;9.714;2023-04-01T05:41:21;8.20;99.90
10249;DHT22;5169;50.560;9.714;2023-04-01T05:43:47;8.20;99.90
10249;DHT22;5169;50.560;9.714;2023-04-01T05:46:13;8.20;99.90
10249;DHT22;5169;50.560;9.714;2023-04-01T05:48:38;8.20;99.90
10249;DHT22;5169;50.560;9.714;2023-04-01T05:51:04;8.20;99.90
10249;DHT22;5169;50.560;9.714;2023-04-01T05:53:30;8.20;99.90
10249;DHT22;5169;50.560;9.714;2023-04-01T05:55:56;8.30;99.90
10249;DHT22;5169;50.560;9.714;2023-04-01T05:58:24;8.30;99.90
10249;DHT22;5169;50.560;9.714;2023-04-01T06:00:50;8.30;99.90
10249;DHT22;5169;50.560;9.714;2023-04-01T06:03:15;8.30;99.90
10249;DHT22;5169;50.560;9.714;2023-04-01T06:05:43;8.30;99.90
10249;DHT22;5169;50.560;9.714;2023-04-01T06:08:15;8.30;99.90
10249;DHT22;5169;50.560;9.714;2023-04-01T06:11:10;8.30;99.90
10249;DHT22;5169;50.560;9.714;2023-04-01T06:19:40;8.40;99.90
10249;DHT22;5169;50.560;9.714;2023-04-01T06:30:42;8.40;99.90
10249;DHT22;5169;50.560;9.714;2023-04-01T06:47:16;8.40;99.90
10249;DHT22;5169;50.560;9.714;2023-04-01T06:50:18;8.40;99.90
10249;DHT22;5169;50.560;9.714;2023-04-01T06:55:46;8.40;99.90
10249;DHT22;5169;50.560;9.714;2023-04-01T07:00:49;8.40;99.90
10249;DHT22;5169;50.560;9.714;2023-04-01T07:03:43;8.30;99.90
10249;DHT22;5169;50.560;9.714;2023-04-01T07:06:36;8.40;99.90
10249;DHT22;5169;50.560;9.714;2023-04-01T07:09:10;8.40;99.90
10249;DHT22;5169;50.560;9.714;2023-04-01T07:11:38;8.40;99.90
10249;DHT22;5169;50.560;9.714;2023-04-01T07:17:16;8.40;99.90
10249;DHT22;5169;50.560;9.714;2023-04-01T07:19:51;8.40;99.90
10249;DHT22;5169;50.560;9.714;2023-04-01T07:22:29;8.40;99.90
10249;DHT22;5169;50.560;9.714;2023-04-01T07:25:11;8.50;99.90
10249;DHT22;5169;50.560;9.714;2023-04-01T07:27:36;8.40;99.90
10249;DHT22;5169;50.560;9.714;2023-04-01T07:30:06;8.40;99.90
10249;DHT22;5169;50.560;9.714;2023-04-01T07:33:11;8.30;99.90
10249;DHT22;5169;50.560;9.714;2023-04-01T07:41:27;8.50;99.90
10249;DHT22;5169;50.560;9.714;2023-04-01T07:52:07;8.60;99.90
10249;DHT22;5169;50.560;9.714;2023-04-01T07:54:53;8.70;99.90
10249;DHT22;5169;50.560;9.714;2023-04-01T07:57:33;8.80;99.90
10249;DHT22;5169;50.560;9.714;2023-04-01T08:00:22;8.80;99.90
10249;DHT22;5169;50.560;9.714;2023-04-01T08:08:43;8.90;99.90
10249;DHT22;5169;50.560;9.714;2023-04-01T08:13:53;9.00;99.90
10249;DHT22;5169;50.560;9.714;2023-04-01T08:16:47;9.10;99.90
10249;DHT22;5169;50.560;9.714;2023-04-01T08:19:24;9.20;99.90
10249;DHT22;5169;50.560;9.714;2023-04-01T08:21:58;9.20;99.90
10249;DHT22;5169;50.560;9.714;2023-04-01T08:24:42;9.30;99.90
10249;DHT22;5169;50.560;9.714;2023-04-01T08:29:54;9.10;99.90
10249;DHT22;5169;50.560;9.714;2023-04-01T08:32:42;9.00;99.90
10249;DHT22;5169;50.560;9.714;2023-04-01T08:35:20;9.00;99.90
10249;DHT22;5169;50.560;9.714;2023-04-01T08:37:48;9.10;99.90
10249;DHT22;5169;50.560;9.714;2023-04-01T08:40:39;9.20;99.90
10249;DHT22;5169;50.560;9.714;2023-04-01T08:46:25;9.20;99.90
10249;DHT22;5169;50.560;9.714;2023-04-01T08:52:06;9.40;99.90
10249;DHT22;5169;50.560;9.714;2023-04-01T08:54:46;9.40;99.90
10249;DHT22;5169;50.560;9.714;2023-04-01T09:18:58;9.50;99.90
10249;DHT22;5169;50.560;9.714;2023-04-01T09:24:25;9.40;99.90
10249;DHT22;5169;50.560;9.714;2023-04-01T09:32:48;9.60;99.90
10249;DHT22;5169;50.560;9.714;2023-04-01T09:35:24;9.50;99.90
10249;DHT22;5169;50.560;9.714;2023-04-01T09:40:54;9.50;99.90
10249;DHT22;5169;50.560;9.714;2023-04-01T09:46:49;9.50;99.90
10249;DHT22;5169;50.560;9.714;2023-04-01T10:09:12;9.50;99.90
10249;DHT22;5169;50.560;9.714;2023-04-01T10:23:02;10.10;99.90
10249;DHT22;5169;50.560;9.714;2023-04-01T10:25:51;10.20;99.90
10249;DHT22;5169;50.560;9.714;2023-04-01T10:36:43;9.90;99.90
10249;DHT22;5169;50.560;9.714;2023-04-01T10:40:03;9.90;99.90
10249;DHT22;5169;50.560;9.714;2023-04-01T10:42:51;10.00;99.90
10249;DHT22;5169;50.560;9.714;2023-04-01T10:53:58;10.00;99.90
10249;DHT22;5169;50.560;9.714;2023-04-01T11:16:47;10.10;99.90
10249;DHT22;5169;50.560;9.714;2023-04-01T11:25:23;10.30;99.90
10249;DHT22;5169;50.560;9.714;2023-04-01T11:33:54;10.20;99.90
10249;DHT22;5169;50.560;9.714;2023-04-01T11:36:33;10.30;99.90
10249;DHT22;5169;50.560;9.714;2023-04-01T11:41:54;10.40;99.90
10249;DHT22;5169;50.560;9.714;2023-04-01T11:44:24;10.50;99.90
10249;DHT22;5169;50.560;9.714;2023-04-01T11:53:04;10.60;99.90
10249;DHT22;5169;50.560;9.714;2023-04-01T11:55:55;10.60;99.90
10249;DHT22;5169;50.560;9.714;2023-04-01T11:58:42;10.60;99.90
10249;DHT22;5169;50.560;9.714;2023-04-01T12:06:49;10.80;99.90
10249;DHT22;5169;50.560;9.714;2023-04-01T12:18:15;11.10;99.90
10249;DHT22;5169;50.560;9.714;2023-04-01T12:20:55;11.20;99.90
10249;DHT22;5169;50.560;9.714;2023-04-01T12:26:20;11.20;99.90
10249;DHT22;5169;50.560;9.714;2023-04-01T12:29:06;11.10;99.90
10249;DHT22;5169;50.560;9.714;2023-04-01T12:31:42;11.20;99.90
10249;DHT22;5169;50.560;9.714;2023-04-01T12:40:37;11.20;99.90
10249;DHT22;5169;50.560;9.714;2023-04-01T12:43:15;11.20;99.90
10249;DHT22;5169;50.560;9.714;2023-04-01T12:52:03;11.00;99.90
10249;DHT22;5169;50.560;9.714;2023-04-01T13:00:27;11.10;99.90
10249;DHT22;5169;50.560;9.714;2023-04-01T13:19:31;10.80;99.90
10249;DHT22;5169;50.560;9.714;2023-04-01T13:27:44;10.70;99.90
10249;DHT22;5169;50.560;9.714;2023-04-01T13:30:25;10.70;99.90
10249;DHT22;5169;50.560;9.714;2023-04-01T13:41:30;10.60;99.90
10249;DHT22;5169;50.560;9.714;2023-04-01T13:44:02;10.60;99.90
10249;DHT22;5169;50.560;9.714;2023-04-01T13:52:33;10.60;99.90
10249;DHT22;5169;50.560;9.714;2023-04-01T14:01:13;10.70;99.90
10249;DHT22;5169;50.560;9.714;2023-04-01T14:09:20;10.50;99.90
10249;DHT22;5169;50.560;9.714;2023-04-01T14:12:11;10.60;99.90
10249;DHT22;5169;50.560;9.714;2023-04-01T14:49:20;10.70;99.90
10249;DHT22;5169;50.560;9.714;2023-04-01T14:51:46;10.80;99.90
10249;DHT22;5169;50.560;9.714;2023-04-01T14:54:19;10.80;99.90
10249;DHT22;5169;50.560;9.714;2023-04-01T14:57:01;10.80;99.90
10249;DHT22;5169;50.560;9.714;2023-04-01T14:59:31;10.80;99.90
10249;DHT22;5169;50.560;9.714;2023-04-01T15:02:38;10.70;99.90
10249;DHT22;5169;50.560;9.714;2023-04-01T15:10:41;10.60;99.90
10249;DHT22;5169;50.560;9.714;2023-04-01T15:13:14;10.50;99.90
10249;DHT22;5169;50.560;9.714;2023-04-01T15:24:26;10.40;99.90
10249;DHT22;5169;50.560;9.714;2023-04-01T15:27:18;10.40;99.90
10249;DHT22;5169;50.560;9.714;2023-04-01T15:32:45;10.40;99.90
10249;DHT22;5169;50.560;9.714;2023-04-01T15:43:52;10.40;99.90
10249;DHT22;5169;50.560;9.714;2023-04-01T15:46:42;10.50;99.90
10249;DHT22;5169;50.560;9.714;2023-04-01T15:55:12;10.80;99.90
10249;DHT22;5169;50.560;9.714;2023-04-01T16:00:53;10.70;99.90
10249;DHT22;5169;50.560;9.714;2023-04-01T16:04:37;10.80;99.90
10249;DHT22;5169;50.560;9.714;2023-04-01T16:15:39;10.60;99.90
10249;DHT22;5169;50.560;9.714;2023-04-01T16:18:44;10.60;99.90
10249;DHT22;5169;50.560;9.714;2023-04-01T16:21:27;10.60;99.90
10249;DHT22;5169;50.560;9.714;2023-04-01T16:24:23;10.60;99.90
10249;DHT22;5169;50.560;9.714;2023-04-01T16:26:54;10.50;99.90
10249;DHT22;5169;50.560;9.714;2023-04-01T16:32:37;10.50;99.90
10249;DHT22;5169;50.560;9.714;2023-04-01T16:35:30;10.50;99.90
10249;DHT22;5169;50.560;9.714;2023-04-01T16:38:15;10.40;99.90
10249;DHT22;5169;50.560;9.714;2023-04-01T16:41:16;10.60;99.90
10249;DHT22;5169;50.560;9.714;2023-04-01T16:43:51;10.50;99.90
10249;DHT22;5169;50.560;9.714;2023-04-01T16:46:39;10.60;99.90
10249;DHT22;5169;50.560;9.714;2023-04-01T16:49:22;10.50;99.90
10249;DHT22;5169;50.560;9.714;2023-04-01T16:57:23;10.40;99.90
10249;DHT22;5169;50.560;9.714;2023-04-01T17:02:50;10.50;99.90
10249;DHT22;5169;50.560;9.714;2023-04-01T17:05:18;10.50;99.90
10249;DHT22;5169;50.560;9.714;2023-04-01T17:08:06;10.50;99.90
10249;DHT22;5169;50.560;9.714;2023-04-01T17:24:53;10.20;99.90
10249;DHT22;5169;50.560;9.714;2023-04-01T17:30:30;10.20;99.90
10249;DHT22;5169;50.560;9.714;2023-04-01T17:36:22;10.20;99.90
10249;DHT22;5169;50.560;9.714;2023-04-01T17:39:07;10.20;99.90
10249;DHT22;5169;50.560;9.714;2023-04-01T17:42:00;10.20;99.90
10249;DHT22;5169;50.560;9.714;2023-04-01T17:52:56;10.10;99.90
10249;DHT22;5169;50.560;9.714;2023-04-01T17:58:06;10.00;99.90
10249;DHT22;5169;50.560;9.714;2023-04-01T18:06:26;9.80;99.90
10249;DHT22;5169;50.560;9.714;2023-04-01T18:14:54;9.80;99.90
10249;DHT22;5169;50.560;9.714;2023-04-01T18:17:44;9.60;99.90
10249;DHT22;5169;50.560;9.714;2023-04-01T18:20:47;9.60;99.90
10249;DHT22;5169;50.560;9.714;2023-04-01T18:26:34;9.50;99.90
10249;DHT22;5169;50.560;9.714;2023-04-01T18:29:12;9.40;99.90
10249;DHT22;5169;50.560;9.714;2023-04-01T18:31:43;9.30;99.90
10249;DHT22;5169;50.560;9.714;2023-04-01T18:35:27;9.20;99.90
10249;DHT22;5169;50.560;9.714;2023-04-01T18:37:34;9.20;99.90
10249;DHT22;5169;50.560;9.714;2023-04-01T18:40:31;9.20;99.90
10249;DHT22;5169;50.560;9.714;2023-04-01T18:46:17;9.10;99.90
10249;DHT22;5169;50.560;9.714;2023-04-01T18:51:49;9.10;99.90
10249;DHT22;5169;50.560;9.714;2023-04-01T18:54:31;9.10;99.90
10249;DHT22;5169;50.560;9.714;2023-04-01T18:57:12;8.90;99.90
10249;DHT22;5169;50.560;9.714;2023-04-01T18:59:42;8.90;99.90
10249;DHT22;5169;50.560;9.714;2023-04-01T19:04:47;9.00;99.90
10249;DHT22;5169;50.560;9.714;2023-04-01T19:07:34;9.10;99.90
10249;DHT22;5169;50.560;9.714;2023-04-01T19:12:57;9.20;99.90
10249;DHT22;5169;50.560;9.714;2023-04-01T19:21:42;8.90;99.90
10249;DHT22;5169;50.560;9.714;2023-04-01T19:26:48;9.00;99.90
10249;DHT22;5169;50.560;9.714;2023-04-01T19:40:35;9.00;99.90
10249;DHT22;5169;50.560;9.714;2023-04-01T19:49:06;8.90;99.90
10249;DHT22;5169;50.560;9.714;2023-04-01T19:51:46;8.90;99.90
10249;DHT22;5169;50.560;9.714;2023-04-01T20:04:48;8.70;99.90
10249;DHT22;5169;50.560;9.714;2023-04-01T20:07:33;8.70;99.90
10249;DHT22;5169;50.560;9.714;2023-04-01T20:12:57;8.60;99.90
10249;DHT22;5169;50.560;9.714;2023-04-01T20:15:39;8.70;99.90
10249;DHT22;5169;50.560;9.714;2023-04-01T20:24:20;8.70;99.90
10249;DHT22;5169;50.560;9.714;2023-04-01T20:26:53;8.80;99.90
10249;DHT22;5169;50.560;9.714;2023-04-01T20:35:18;8.60;99.90
10249;DHT22;5169;50.560;9.714;2023-04-01T20:40:28;8.60;99.90
10249;DHT22;5169;50.560;9.714;2023-04-01T21:02:10;8.60;99.90
10249;DHT22;5169;50.560;9.714;2023-04-01T21:10:34;8.50;99.90
10249;DHT22;5169;50.560;9.714;2023-04-01T21:13:06;8.60;99.90
10249;DHT22;5169;50.560;9.714;2023-04-01T21:27:13;8.70;99.90
10249;DHT22;5169;50.560;9.714;2023-04-01T21:36:25;8.70;99.90
10249;DHT22;5169;50.560;9.714;2023-04-01T21:44:36;8.70;99.90
10249;DHT22;5169;50.560;9.714;2023-04-01T21:50:33;8.70;99.90
10249;DHT22;5169;50.560;9.714;2023-04-01T21:53:12;8.70;99.90
10249;DHT22;5169;50.560;9.714;2023-04-01T21:56:12;8.70;99.90
10249;DHT22;5169;50.560;9.714;2023-04-01T22:04:41;8.80;99.90
10249;DHT22;5169;50.560;9.714;2023-04-01T22:07:15;8.90;99.90
10249;DHT22;5169;50.560;9.714;2023-04-01T22:12:37;9.00;99.90
10249;DHT22;5169;50.560;9.714;2023-04-01T22:18:12;8.80;99.90
10249;DHT22;5169;50.560;9.714;2023-04-01T22:21:13;8.80;99.90
10249;DHT22;5169;50.560;9.714;2023-04-01T22:37:23;9.10;99.90
10249;DHT22;5169;50.560;9.714;2023-04-01T22:42:47;9.20;99.90
10249;DHT22;5169;50.560;9.714;2023-04-01T22:49:21;9.10;99.90
10249;DHT22;5169;50.560;9.714;2023-04-01T22:54:18;9.10;99.90
10249;DHT22;5169;50.560;9.714;2023-04-01T22:56:53;9.00;99.90
10249;DHT22;5169;50.560;9.714;2023-04-01T23:02:15;9.10;99.90
10249;DHT22;5169;50.560;9.714;2023-04-01T23:04:52;9.10;99.90
10249;DHT22;5169;50.560;9.714;2023-04-01T23:09:56;9.10;99.90
10249;DHT22;5169;50.560;9.714;2023-04-01T23:12:25;9.00;99.90
10249;DHT22;5169;50.560;9.714;2023-04-01T23:14:58;9.00;99.90
10249;DHT22;5169;50.560;9.714;2023-04-01T23:17:39;8.90;99.90
10249;DHT22;5169;50.560;9.714;2023-04-01T23:20:23;8.90;99.90
10249;DHT22;5169;50.560;9.714;2023-04-01T23:26:12;9.10;99.90
10249;DHT22;5169;50.560;9.714;2023-04-01T23:28:49;9.30;99.90
10249;DHT22;5169;50.560;9.714;2023-04-01T23:31:32;9.40;99.90
10249;DHT22;5169;50.560;9.714;2023-04-01T23:34:25;9.30;99.90
10249;DHT22;5169;50.560;9.714;2023-04-01T23:36:59;9.10;99.90
10249;DHT22;5169;50.560;9.714;2023-04-01T23:39:35;9.10;99.90
10249;DHT22;5169;50.560;9.714;2023-04-01T23:42:05;9.00;99.90
10249;DHT22;5169;50.560;9.714;2023-04-01T23:44:33;9.10;99.90
10249;DHT22;5169;50.560;9.714;2023-04-01T23:47:00;9.10;99.90
10249;DHT22;5169;50.560;9.714;2023-04-01T23:49:47;9.10;99.90
10249;DHT22;5169;50.560;9.714;2023-04-01T23:52:21;9.30;99.90
10249;DHT22;5169;50.560;9.714;2023-04-01T23:57:32;9.20;99.90
